Time;durP1;ratioP1;P1;durP2;ratioP2;P2;SDS_P1;SDS_P2;PMS_P1;PMS_P2;Temp;Humidity;BMP_temperature;BMP_pressure;BME280_temperature;BME280_humidity;BME280_pressure;Samples;Min_cycle;Max_cycle;Signal;HPM_P1;HPM_P2
2023/06/23 00:02:12;;;;;;;5.05;3.00;;;;;;;17.79;100.00;100800.00;4953382;28;20421;-83
2023/06/23 00:04:37;;;;;;;3.92;2.80;;;;;;;17.80;100.00;100800.84;4954156;28;20041;-83
2023/06/23 00:07:04;;;;;;;7.78;3.60;;;;;;;17.78;100.00;100792.16;4958250;28;20034;-80
2023/06/23 00:09:30;;;;;;;6.70;3.03;;;;;;;17.82;100.00;100791.63;4972747;28;20034;-80
2023/06/23 00:11:59;;;;;;;5.50;2.95;;;;;;;17.83;100.00;100792.47;4951186;28;20511;-81
2023/06/23 00:14:25;;;;;;;15.95;3.63;;;;;;;17.84;100.00;100794.94;4947768;28;20037;-80
2023/06/23 00:16:51;;;;;;;3.42;2.83;;;;;;;17.87;100.00;100792.94;4937810;28;20112;-81
2023/06/23 00:19:17;;;;;;;5.72;3.40;;;;;;;17.82;100.00;100790.81;4956210;28;20065;-80
2023/06/23 00:21:44;;;;;;;5.28;3.67;;;;;;;17.80;100.00;100787.47;4956434;28;20041;-81
2023/06/23 00:24:11;;;;;;;5.68;3.67;;;;;;;17.79;100.00;100797.34;4974450;28;20062;-80
2023/06/23 00:26:37;;;;;;;6.97;3.70;;;;;;;17.73;100.00;100795.41;4956479;28;20119;-80
2023/06/23 00:29:05;;;;;;;4.50;3.30;;;;;;;17.71;100.00;100789.44;4957702;28;20030;-80
2023/06/23 00:31:31;;;;;;;8.20;3.45;;;;;;;17.68;100.00;100793.28;4982630;28;20073;-80
2023/06/23 00:33:57;;;;;;;10.65;3.80;;;;;;;17.66;100.00;100805.19;4957352;28;20097;-80
2023/06/23 00:36:24;;;;;;;3.88;3.58;;;;;;;17.65;100.00;100801.66;4993059;28;20046;-81
2023/06/23 00:38:50;;;;;;;5.97;3.38;;;;;;;17.61;100.00;100795.84;4964526;28;20033;-82
2023/06/23 00:41:16;;;;;;;5.15;3.47;;;;;;;17.64;100.00;100797.34;4957113;28;20030;-81
2023/06/23 00:43:49;;;;;;;6.22;3.35;;;;;;;17.61;100.00;100790.50;4950072;28;20045;-80
2023/06/23 00:46:18;;;;;;;6.38;3.40;;;;;;;17.60;100.00;100791.53;4947608;28;20046;-80
2023/06/23 00:48:48;;;;;;;6.18;3.70;;;;;;;17.61;100.00;100787.81;4940625;28;20387;-80
2023/06/23 00:51:15;;;;;;;7.07;3.58;;;;;;;17.64;100.00;100780.47;4966777;28;20035;-80
2023/06/23 00:53:48;;;;;;;9.02;3.80;;;;;;;17.63;100.00;100781.47;4934280;28;20055;-81
2023/06/23 00:56:15;;;;;;;7.03;3.58;;;;;;;17.66;100.00;100781.94;4942020;28;20393;-80
2023/06/23 00:58:41;;;;;;;6.65;3.50;;;;;;;17.65;100.00;100780.28;4940058;28;20150;-80
2023/06/23 01:01:10;;;;;;;4.70;3.53;;;;;;;17.64;100.00;100786.66;4955880;28;20478;-80
2023/06/23 01:03:37;;;;;;;5.03;3.75;;;;;;;17.64;100.00;100773.28;4981334;28;20031;-79
2023/06/23 01:06:27;;;;;;;5.03;3.33;;;;;;;17.65;100.00;100771.41;4968590;28;20038;-81
2023/06/23 01:09:12;;;;;;;6.22;3.63;;;;;;;17.61;100.00;100768.31;4965895;28;20516;-82
2023/06/23 01:11:48;;;;;;;6.80;3.67;;;;;;;17.58;100.00;100774.81;4968998;28;20054;-82
2023/06/23 01:14:31;;;;;;;7.72;4.22;;;;;;;17.55;100.00;100777.88;4970287;28;20106;-80
2023/06/23 01:17:24;;;;;;;8.65;3.45;;;;;;;17.56;100.00;100770.69;4950971;28;20134;-80
2023/06/23 01:19:57;;;;;;;6.63;3.47;;;;;;;17.52;100.00;100769.41;4962478;28;20082;-80
2023/06/23 01:22:36;;;;;;;4.78;3.58;;;;;;;17.50;100.00;100758.06;4945181;28;20049;-81
2023/06/23 01:25:21;;;;;;;7.30;3.50;;;;;;;17.45;100.00;100764.78;4956170;28;20644;-81
2023/06/23 01:27:57;;;;;;;5.40;3.40;;;;;;;17.41;100.00;100770.66;4986850;28;20034;-80
2023/06/23 01:30:26;;;;;;;7.68;3.40;;;;;;;17.44;100.00;100764.97;4943718;28;20454;-80
2023/06/23 01:33:02;;;;;;;8.32;3.88;;;;;;;17.45;100.00;100762.13;4967617;28;20674;-80
2023/06/23 01:35:33;;;;;;;6.30;3.53;;;;;;;17.44;100.00;100760.44;4970468;28;20118;-79
2023/06/23 01:38:08;;;;;;;6.35;3.30;;;;;;;17.46;100.00;100755.75;4966545;28;20039;-80
2023/06/23 01:40:37;;;;;;;8.32;4.20;;;;;;;17.44;100.00;100765.78;4942006;28;20031;-80
2023/06/23 01:43:07;;;;;;;6.30;3.60;;;;;;;17.41;100.00;100751.94;4968228;28;20554;-80
2023/06/23 01:45:34;;;;;;;7.43;3.75;;;;;;;17.38;100.00;100749.66;4979606;28;20034;-80
2023/06/23 01:48:06;;;;;;;4.57;3.50;;;;;;;17.37;100.00;100748.84;4951291;28;20049;-80
2023/06/23 01:50:33;;;;;;;5.13;3.72;;;;;;;17.38;100.00;100747.81;4937978;28;20109;-80
2023/06/23 01:53:02;;;;;;;8.60;3.75;;;;;;;17.36;100.00;100744.47;4934700;28;20061;-80
2023/06/23 01:55:30;;;;;;;9.10;3.78;;;;;;;17.32;100.00;100748.53;4923459;28;20106;-78
2023/06/23 01:57:58;;;;;;;4.38;3.42;;;;;;;17.30;100.00;100750.56;4938088;28;20096;-80
2023/06/23 02:00:24;;;;;;;5.43;3.15;;;;;;;17.28;100.00;100748.06;4951591;28;20093;-79
2023/06/23 02:02:52;;;;;;;7.40;3.80;;;;;;;17.30;100.00;100746.06;4937836;28;20041;-80
2023/06/23 02:05:22;;;;;;;8.38;4.68;;;;;;;17.27;100.00;100725.03;4953759;28;20039;-80
2023/06/23 02:07:51;;;;;;;6.63;3.75;;;;;;;17.23;100.00;100727.25;4921647;28;20462;-80
2023/06/23 02:10:19;;;;;;;7.07;3.92;;;;;;;17.18;100.00;100726.13;4959903;28;20042;-80
2023/06/23 02:12:48;;;;;;;6.15;3.85;;;;;;;17.17;100.00;100725.28;4937668;28;20053;-79
2023/06/23 02:15:16;;;;;;;9.00;3.97;;;;;;;17.18;100.00;100724.31;4940595;28;20031;-80
2023/06/23 02:17:44;;;;;;;4.80;3.75;;;;;;;17.20;100.00;100724.94;4949234;28;20039;-79
2023/06/23 02:20:15;;;;;;;5.80;4.20;;;;;;;17.19;100.00;100725.97;4940247;28;20126;-80
2023/06/23 02:22:50;;;;;;;7.03;3.67;;;;;;;17.23;100.00;100716.56;4926802;29;20050;-79
2023/06/23 02:25:19;;;;;;;6.20;3.90;;;;;;;17.21;100.00;100720.44;4934265;28;20066;-79
2023/06/23 02:27:45;;;;;;;6.32;4.32;;;;;;;17.22;100.00;100706.06;4941540;28;20504;-79
2023/06/23 02:30:12;;;;;;;10.63;4.93;;;;;;;17.24;100.00;100698.69;4952407;28;20576;-79
2023/06/23 02:32:39;;;;;;;6.15;4.63;;;;;;;17.23;100.00;100697.84;4935994;28;20043;-80
2023/06/23 02:35:07;;;;;;;7.70;4.13;;;;;;;17.25;100.00;100704.88;4961566;28;20039;-79
2023/06/23 02:37:35;;;;;;;8.52;4.80;;;;;;;17.23;100.00;100699.72;4946387;28;20038;-79
2023/06/23 02:40:16;;;;;;;7.45;4.30;;;;;;;17.21;100.00;100699.91;4945462;28;20034;-79
2023/06/23 02:42:50;;;;;;;7.30;4.38;;;;;;;17.23;100.00;100700.53;4923554;28;20485;-79
2023/06/23 02:45:19;;;;;;;8.60;4.57;;;;;;;17.22;100.00;100720.25;4961646;28;20082;-79
2023/06/23 02:47:48;;;;;;;9.93;4.70;;;;;;;17.23;100.00;100707.72;4966939;28;20041;-80
2023/06/23 02:50:18;;;;;;;6.35;4.13;;;;;;;17.21;100.00;100705.25;4951681;28;20039;-79
2023/06/23 02:52:49;;;;;;;4.65;3.53;;;;;;;17.23;100.00;100707.72;4949508;28;20448;-83
2023/06/23 02:55:19;;;;;;;10.15;4.45;;;;;;;17.23;100.00;100705.88;4973325;28;21240;-82
2023/06/23 02:57:49;;;;;;;8.50;4.18;;;;;;;17.20;100.00;100713.44;4961029;28;20062;-79
2023/06/23 03:00:22;;;;;;;6.55;4.13;;;;;;;17.17;100.00;100711.94;4961083;28;20036;-79
2023/06/23 03:02:55;;;;;;;7.47;4.22;;;;;;;17.18;100.00;100712.78;4967156;28;20408;-79
2023/06/23 03:05:22;;;;;;;7.30;4.10;;;;;;;17.14;100.00;100725.66;4974226;28;20034;-78
2023/06/23 03:07:51;;;;;;;12.15;4.55;;;;;;;17.17;100.00;100729.81;4944466;28;20058;-80
2023/06/23 03:10:17;;;;;;;8.02;4.13;;;;;;;17.15;100.00;100724.66;4980214;28;20041;-80
2023/06/23 03:12:43;;;;;;;6.25;4.30;;;;;;;17.16;100.00;100725.47;4960380;28;20094;-80
2023/06/23 03:15:11;;;;;;;9.13;4.97;;;;;;;17.18;100.00;100718.13;4971201;28;20034;-80
2023/06/23 03:17:40;;;;;;;7.22;4.03;;;;;;;17.17;100.00;100719.16;4965816;28;20080;-80
2023/06/23 03:20:22;;;;;;;7.80;4.50;;;;;;;17.13;100.00;100710.66;4963151;28;20087;-79
2023/06/23 03:23:05;;;;;;;5.88;3.90;;;;;;;17.11;100.00;100708.16;4970206;28;20030;-79
2023/06/23 03:25:31;;;;;;;7.97;4.38;;;;;;;17.07;100.00;100709.50;4971040;28;20497;-80
2023/06/23 03:28:06;;;;;;;8.80;4.53;;;;;;;17.08;100.00;100708.53;4971627;28;20049;-79
2023/06/23 03:30:39;;;;;;;8.50;4.40;;;;;;;17.07;100.00;100696.13;4948438;28;20034;-80
2023/06/23 03:33:14;;;;;;;11.88;4.85;;;;;;;17.09;100.00;100701.34;4962451;28;20035;-80
2023/06/23 03:35:44;;;;;;;7.72;3.83;;;;;;;17.08;100.00;100695.19;4974983;28;20114;-81
2023/06/23 03:38:16;;;;;;;10.65;3.72;;;;;;;17.13;100.00;100708.00;4965575;28;20099;-79
2023/06/23 03:41:10;;;;;;;5.80;4.50;;;;;;;17.16;100.00;100709.44;4939271;28;20848;-80
2023/06/23 03:43:41;;;;;;;7.32;4.10;;;;;;;17.18;100.00;100705.59;4955601;28;20118;-79
2023/06/23 03:46:13;;;;;;;5.20;4.05;;;;;;;17.18;100.00;100705.59;4959773;28;20077;-79
2023/06/23 03:48:42;;;;;;;9.00;4.10;;;;;;;17.18;100.00;100716.28;4939993;28;20082;-80
2023/06/23 03:51:12;;;;;;;17.50;4.22;;;;;;;17.20;100.00;100724.13;4954746;28;20034;-80
2023/06/23 03:53:39;;;;;;;5.72;3.50;;;;;;;17.20;100.00;100716.09;4936437;29;20505;-80
2023/06/23 03:56:08;;;;;;;7.13;3.70;;;;;;;17.22;100.00;100725.59;4970117;28;20037;-80
2023/06/23 03:58:37;;;;;;;5.97;4.07;;;;;;;17.19;100.00;100709.94;4943746;28;20385;-78
2023/06/23 04:01:05;;;;;;;8.82;4.20;;;;;;;17.16;100.00;100715.63;4944801;28;20058;-79
2023/06/23 04:03:34;;;;;;;8.93;4.05;;;;;;;17.15;100.00;100721.16;4955390;28;20074;-80
2023/06/23 04:06:04;;;;;;;5.53;4.45;;;;;;;17.12;100.00;100719.66;4976496;28;20122;-80
2023/06/23 04:08:32;;;;;;;6.25;4.20;;;;;;;17.12;100.00;100714.31;4948907;28;20042;-80
2023/06/23 04:11:00;;;;;;;7.53;3.55;;;;;;;17.13;100.00;100716.00;4964025;28;20600;-79
2023/06/23 04:13:28;;;;;;;8.90;3.72;;;;;;;17.13;100.00;100718.66;4943309;28;20042;-80
2023/06/23 04:15:56;;;;;;;7.45;4.15;;;;;;;17.17;100.00;100727.97;4926606;28;20042;-80
2023/06/23 04:18:24;;;;;;;6.15;3.80;;;;;;;17.17;100.00;100721.81;4955487;28;20069;-80
2023/06/23 04:20:53;;;;;;;7.15;3.83;;;;;;;17.16;100.00;100731.66;4967702;28;20632;-79
2023/06/23 04:23:20;;;;;;;13.38;4.13;;;;;;;17.15;100.00;100721.16;4925127;28;20489;-80
2023/06/23 04:25:48;;;;;;;4.28;3.17;;;;;;;17.16;100.00;100720.97;4950056;28;20026;-80
2023/06/23 04:28:22;;;;;;;8.98;3.70;;;;;;;17.18;100.00;100724.31;4966904;28;20043;-82
2023/06/23 04:30:48;;;;;;;5.72;3.40;;;;;;;17.14;100.00;100720.31;4970696;28;20035;-83
2023/06/23 04:33:14;;;;;;;6.10;3.95;;;;;;;17.10;100.00;100714.50;4953960;28;20030;-80
2023/06/23 04:35:40;;;;;;;7.32;3.55;;;;;;;17.07;100.00;100706.00;4954585;28;20496;-81
2023/06/23 04:38:11;;;;;;;11.43;3.92;;;;;;;17.11;100.00;100712.66;4956685;28;20038;-81
2023/06/23 04:40:42;;;;;;;8.10;4.00;;;;;;;17.11;100.00;100713.50;4970975;28;20027;-83
2023/06/23 04:43:18;;;;;;;4.95;3.83;;;;;;;17.16;100.00;100712.97;4954419;28;20038;-79
2023/06/23 04:45:55;;;;;;;5.72;3.50;;;;;;;17.17;100.00;100698.59;4934817;28;20362;-78
2023/06/23 04:48:26;;;;;;;7.93;3.55;;;;;;;17.20;100.00;100695.56;4960844;28;20062;-79
2023/06/23 04:50:56;;;;;;;9.48;3.47;;;;;;;17.23;100.00;100697.84;4947011;28;20485;-79
2023/06/23 04:53:25;;;;;;;8.50;4.00;;;;;;;17.22;100.00;100700.72;4941947;28;20058;-79
2023/06/23 04:55:58;;;;;;;6.10;3.47;;;;;;;17.23;100.00;100705.06;4977834;28;20472;-79
2023/06/23 04:58:28;;;;;;;5.65;3.22;;;;;;;17.20;100.00;100705.44;4976991;28;20046;-80
2023/06/23 05:00:56;;;;;;;7.95;3.70;;;;;;;17.20;100.00;100700.09;4969082;28;20409;-80
2023/06/23 05:03:23;;;;;;;5.32;3.10;;;;;;;17.20;100.00;100700.09;4975188;28;20035;-79
2023/06/23 05:05:54;;;;;;;6.35;3.22;;;;;;;17.17;100.00;100692.44;4952772;28;20031;-80
2023/06/23 05:08:23;;;;;;;5.45;3.20;;;;;;;17.15;100.00;100689.94;4951416;28;20059;-80
2023/06/23 05:10:50;;;;;;;7.57;3.20;;;;;;;17.14;100.00;100687.47;4969006;28;20485;-79
2023/06/23 05:13:19;;;;;;;6.47;3.35;;;;;;;17.08;100.00;100684.50;4960287;28;20069;-79
2023/06/23 05:15:47;;;;;;;5.53;2.90;;;;;;;17.04;100.00;100682.34;4939151;28;20480;-80
2023/06/23 05:18:17;;;;;;;6.28;2.90;;;;;;;17.04;100.00;100685.81;4952607;28;20054;-83
2023/06/23 05:20:46;;;;;;;6.47;2.83;;;;;;;16.99;100.00;100690.91;4932019;28;20129;-84
2023/06/23 05:23:15;;;;;;;5.65;2.90;;;;;;;16.98;100.00;100684.72;4951683;28;20047;-79
2023/06/23 05:25:46;;;;;;;4.35;2.50;;;;;;;17.00;100.00;100684.53;4970983;28;20034;-81
2023/06/23 05:28:15;;;;;;;3.55;2.42;;;;;;;16.98;100.00;100686.53;4966091;28;20078;-80
2023/06/23 05:30:42;;;;;;;3.78;2.40;;;;;;;16.97;100.00;100684.91;4971315;28;20499;-80
2023/06/23 05:33:10;;;;;;;6.53;2.70;;;;;;;16.99;100.00;100680.22;4939473;28;20370;-80
2023/06/23 05:35:39;;;;;;;4.10;2.47;;;;;;;16.97;100.00;100683.06;4944017;28;20042;-81
2023/06/23 05:38:06;;;;;;;4.45;2.10;;;;;;;16.93;100.00;100687.09;4940393;28;20037;-80
2023/06/23 05:40:33;;;;;;;5.75;2.75;;;;;;;16.88;100.00;100684.16;4960475;28;20065;-80
2023/06/23 05:42:59;;;;;;;7.07;2.40;;;;;;;16.85;100.00;100695.19;4954823;28;20117;-80
2023/06/23 05:45:25;;;;;;;4.55;2.25;;;;;;;16.83;100.00;100683.84;4963219;28;20074;-80
2023/06/23 05:48:06;;;;;;;4.25;2.20;;;;;;;16.88;100.00;100686.81;4975070;28;20428;-81
2023/06/23 05:50:35;;;;;;;4.55;2.15;;;;;;;16.90;100.00;100690.13;4959391;28;20101;-80
2023/06/23 05:53:13;;;;;;;4.13;2.20;;;;;;;16.93;100.00;100680.94;4952635;28;20054;-81
2023/06/23 05:55:46;;;;;;;5.07;2.38;;;;;;;16.94;100.00;100698.63;4959516;28;20473;-80
2023/06/23 05:58:13;;;;;;;6.30;2.80;;;;;;;16.93;100.00;100691.63;4962808;28;20030;-80
2023/06/23 06:00:51;;;;;;;4.60;2.25;;;;;;;16.92;100.00;100688.13;4928880;29;20062;-80
2023/06/23 06:03:22;;;;;;;3.83;2.35;;;;;;;16.91;100.00;100689.13;4962544;28;20026;-81
2023/06/23 06:05:54;;;;;;;5.38;2.80;;;;;;;16.93;100.00;100688.94;4957378;28;20488;-80
2023/06/23 06:08:21;;;;;;;4.38;2.47;;;;;;;16.94;100.00;100687.94;4952530;28;20031;-81
2023/06/23 06:10:50;;;;;;;5.75;2.65;;;;;;;16.92;100.00;100682.78;4973886;28;20035;-80
2023/06/23 06:13:17;;;;;;;5.28;2.40;;;;;;;16.92;100.00;100682.78;4970878;28;20045;-80
2023/06/23 06:15:45;;;;;;;4.18;2.15;;;;;;;16.90;100.00;100684.78;4958740;28;20487;-80
2023/06/23 06:18:14;;;;;;;3.92;2.25;;;;;;;16.92;100.00;100684.59;4968629;28;20031;-81
2023/06/23 06:20:42;;;;;;;3.47;2.30;;;;;;;16.89;100.00;100685.81;4971195;28;20464;-80
2023/06/23 06:23:10;;;;;;;6.78;2.47;;;;;;;16.88;100.00;100678.81;4938759;28;20053;-80
2023/06/23 06:25:38;;;;;;;5.35;2.15;;;;;;;16.86;100.00;100680.81;4972558;28;20500;-82
2023/06/23 06:28:07;;;;;;;5.90;2.55;;;;;;;16.86;100.00;100681.66;4933033;28;20580;-81
2023/06/23 06:30:37;;;;;;;6.03;2.20;;;;;;;16.85;100.00;100671.97;4968853;28;20043;-81
2023/06/23 06:33:04;;;;;;;6.63;2.10;;;;;;;16.87;100.00;100671.81;4961560;28;20034;-80
2023/06/23 06:35:32;;;;;;;3.67;2.15;;;;;;;16.85;100.00;100676.50;4978022;28;20042;-80
2023/06/23 06:37:59;;;;;;;6.80;2.35;;;;;;;16.82;100.00;100683.03;4939769;28;20042;-80
2023/06/23 06:40:26;;;;;;;5.18;2.58;;;;;;;16.85;100.00;100674.66;4987704;28;20033;-81
2023/06/23 06:42:52;;;;;;;4.47;3.05;;;;;;;16.86;100.00;100676.31;4967246;28;20039;-80
2023/06/23 06:45:18;;;;;;;3.75;2.08;;;;;;;16.84;100.00;100666.81;4971213;28;20038;-80
2023/06/23 06:47:44;;;;;;;3.10;1.95;;;;;;;16.85;100.00;100680.00;4956218;28;20073;-81
2023/06/23 06:50:13;;;;;;;2.40;1.80;;;;;;;16.90;100.00;100676.78;4971659;28;20118;-80
2023/06/23 06:52:41;;;;;;;4.75;2.15;;;;;;;16.89;100.00;100688.47;4971419;28;20039;-81
2023/06/23 06:55:14;;;;;;;5.60;2.20;;;;;;;16.93;100.00;100688.94;4969097;28;20039;-81
2023/06/23 06:57:41;;;;;;;5.22;2.28;;;;;;;16.94;100.00;100685.25;4981112;28;20027;-80
2023/06/23 07:00:09;;;;;;;5.43;1.98;;;;;;;16.96;100.00;100684.06;4948572;28;20027;-81
2023/06/23 07:02:39;;;;;;;4.13;2.20;;;;;;;16.96;100.00;100683.25;4964601;28;20038;-80
2023/06/23 07:05:06;;;;;;;4.50;2.20;;;;;;;16.96;100.00;100689.41;4950708;28;20034;-80
2023/06/23 07:07:32;;;;;;;3.40;2.10;;;;;;;16.96;100.00;100683.25;4965589;28;20038;-80
2023/06/23 07:09:58;;;;;;;2.92;1.90;;;;;;;16.90;100.00;100675.97;4935218;29;20501;-80
2023/06/23 07:12:24;;;;;;;4.45;2.08;;;;;;;16.90;100.00;100675.97;4960567;28;20035;-80
2023/06/23 07:14:51;;;;;;;5.55;2.17;;;;;;;16.90;100.00;100682.13;4959951;28;20837;-80
2023/06/23 07:17:16;;;;;;;3.55;1.92;;;;;;;16.88;100.00;100676.16;4954188;28;20046;-80
2023/06/23 07:19:42;;;;;;;2.53;1.50;;;;;;;16.86;100.00;100670.16;4951130;28;20019;-80
2023/06/23 07:22:09;;;;;;;5.25;1.55;;;;;;;16.85;100.00;100677.31;4950554;28;20490;-81
2023/06/23 07:24:34;;;;;;;3.35;1.88;;;;;;;16.81;100.00;100678.69;4945584;28;20074;-80
2023/06/23 07:27:01;;;;;;;3.08;1.90;;;;;;;16.85;100.00;100681.84;4977562;28;20087;-80
2023/06/23 07:29:26;;;;;;;2.55;1.45;;;;;;;16.86;100.00;100675.50;4972819;28;20511;-80
2023/06/23 07:31:52;;;;;;;4.38;1.83;;;;;;;16.92;100.00;100668.59;4969950;28;20042;-81
2023/06/23 07:34:18;;;;;;;4.38;1.77;;;;;;;16.94;100.00;100678.09;4960082;28;20084;-81
2023/06/23 07:36:44;;;;;;;3.58;1.60;;;;;;;16.97;100.00;100669.72;4952824;28;20078;-81
2023/06/23 07:39:10;;;;;;;2.30;1.40;;;;;;;16.99;100.00;100672.22;4964853;28;20053;-80
2023/06/23 07:41:37;;;;;;;4.55;1.58;;;;;;;17.04;100.00;100671.66;4982409;28;20030;-81
2023/06/23 07:44:03;;;;;;;3.10;1.77;;;;;;;17.05;100.00;100673.31;4951358;28;20034;-82
2023/06/23 07:46:29;;;;;;;3.10;1.42;;;;;;;17.06;100.00;100667.78;4938787;28;20037;-80
2023/06/23 07:48:56;;;;;;;4.50;1.60;;;;;;;17.01;100.00;100670.16;4959386;28;20031;-81
2023/06/23 07:51:21;;;;;;;2.60;1.20;;;;;;;17.03;100.00;100665.47;4956973;28;20108;-81
2023/06/23 07:53:47;;;;;;;3.78;1.83;;;;;;;17.04;100.00;100677.81;4976711;28;20046;-83
2023/06/23 07:56:13;;;;;;;3.08;1.77;;;;;;;17.04;100.00;100675.13;4957149;28;20038;-84
2023/06/23 07:58:39;;;;;;;6.18;1.58;;;;;;;17.01;100.00;100670.16;4968041;28;20034;-80
2023/06/23 08:01:06;;;;;;;3.65;1.95;;;;;;;17.03;100.00;100678.84;4955881;28;20042;-81
2023/06/23 08:03:33;;;;;;;2.80;1.70;;;;;;;17.05;100.00;100667.97;4968250;28;20035;-79
2023/06/23 08:05:59;;;;;;;3.63;2.08;;;;;;;17.07;100.00;100658.75;4932059;28;20137;-82
2023/06/23 08:08:24;;;;;;;4.57;1.65;;;;;;;17.13;100.00;100651.91;4949441;28;20129;-80
2023/06/23 08:10:50;;;;;;;5.05;1.55;;;;;;;17.18;100.00;100660.19;4962498;28;20408;-80
2023/06/23 08:13:17;;;;;;;3.63;1.63;;;;;;;17.22;100.00;100660.66;4957969;28;20480;-83
2023/06/23 08:15:43;;;;;;;4.35;1.40;;;;;;;17.23;100.00;100663.13;4958153;28;20092;-83
2023/06/23 08:18:09;;;;;;;8.07;1.83;;;;;;;17.27;100.00;100658.25;4956814;28;20089;-82
2023/06/23 08:20:35;;;;;;;3.70;1.60;;;;;;;17.30;100.00;100655.22;4968379;28;20038;-81
2023/06/23 08:23:01;;;;;;;6.10;1.67;;;;;;;17.32;100.00;100661.22;4974495;28;20141;-79
2023/06/23 08:25:27;;;;;;;2.80;1.50;;;;;;;17.35;100.00;100665.34;4947369;28;20129;-80
2023/06/23 08:27:53;;;;;;;6.72;2.45;;;;;;;17.42;100.00;100665.44;4967219;28;20097;-81
2023/06/23 08:30:28;;;;;;;4.43;1.73;;;;;;;17.46;100.00;100664.06;4968555;28;20070;-82
2023/06/23 08:32:54;;;;;;;4.88;1.85;;;;;;;17.42;100.00;100658.28;4932131;28;20070;-80
2023/06/23 08:35:21;;;;;;;3.70;1.80;;;;;;;17.40;100.00;100654.13;4948736;28;20038;-82
2023/06/23 08:37:47;;;;;;;4.63;1.60;;;;;;;17.35;100.00;100650.16;4957969;28;20062;-84
2023/06/23 08:40:14;;;;;;;3.38;1.42;;;;;;;17.37;100.00;100652.66;4959496;28;20038;-85
2023/06/23 08:42:40;;;;;;;2.35;1.67;;;;;;;17.43;100.00;100657.25;4973599;28;20081;-85
2023/06/23 08:45:12;;;;;;;7.60;1.50;;;;;;;17.48;100.00;100651.34;4975362;28;20069;-85
2023/06/23 08:47:51;;;;;;;5.90;1.33;;;;;;;17.48;100.00;100656.69;4961191;28;20034;-82
2023/06/23 08:50:18;;;;;;;2.97;1.33;;;;;;;17.49;100.00;100661.03;4964394;28;20125;-82
2023/06/23 08:52:44;;;;;;;1.40;1.10;;;;;;;17.47;100.00;100655.06;4967026;28;20047;-85
2023/06/23 08:55:10;;;;;;;3.85;1.50;;;;;;;17.52;100.00;100654.50;4955323;28;20038;-85
2023/06/23 08:57:38;;;;;;;2.53;1.08;;;;;;;17.50;100.00;100652.00;4941534;28;20038;-85
2023/06/23 09:00:07;;;;;;;1.70;1.20;;;;;;;17.60;100.00;100646.34;4954717;28;20018;-84
2023/06/23 09:02:33;;;;;;;2.92;1.10;;;;;;;17.68;100.00;100643.59;4968843;28;20030;-86
2023/06/23 09:04:59;;;;;;;2.28;1.00;;;;;;;17.80;100.00;100649.28;4962685;28;20031;-84
2023/06/23 09:07:26;;;;;;;1.30;0.90;;;;;;;17.90;100.00;100646.31;4968833;28;20490;-85
2023/06/23 09:09:52;;;;;;;0.65;0.60;;;;;;;17.98;100.00;100640.84;4944191;28;20105;-83
2023/06/23 09:12:21;;;;;;;0.77;0.57;;;;;;;18.10;100.00;100643.88;4956888;28;20034;-85
2023/06/23 09:14:51;;;;;;;2.13;0.70;;;;;;;18.18;100.00;100659.00;4954204;28;20089;-84
2023/06/23 09:17:19;;;;;;;0.60;0.50;;;;;;;18.19;100.00;100657.97;4969256;28;20073;-84
2023/06/23 09:19:49;;;;;;;1.95;0.70;;;;;;;18.27;100.00;100653.53;4959416;28;20046;-83
2023/06/23 09:22:22;;;;;;;0.90;0.40;;;;;;;18.34;100.00;100652.56;4957586;28;20038;-84
2023/06/23 09:24:49;;;;;;;1.75;0.45;;;;;;;18.38;100.00;100654.88;4966537;28;20559;-83
2023/06/23 09:27:15;;;;;;;3.60;0.40;;;;;;;18.47;100.00;100651.84;4975581;28;20034;-84
2023/06/23 09:29:41;;;;;;;0.60;0.30;;;;;;;18.58;100.00;100649.69;4948826;28;20370;-84
2023/06/23 09:32:09;;;;;;;2.05;0.30;;;;;;;18.70;100.00;100649.97;4986064;28;20042;-82
2023/06/23 09:34:37;;;;;;;2.45;0.30;;;;;;;18.85;100.00;100641.88;4961226;28;20038;-82
2023/06/23 09:37:08;;;;;;;0.85;0.30;;;;;;;18.96;100.00;100643.19;4986175;28;20030;-84
2023/06/23 09:39:35;;;;;;;1.13;0.35;;;;;;;19.05;100.00;100633.97;4953652;28;20034;-83
2023/06/23 09:42:05;;;;;;;1.50;0.43;;;;;;;19.18;100.00;100638.63;4959101;28;20030;-84
2023/06/23 09:44:36;;;;;;;1.55;0.30;;;;;;;19.30;100.00;100643.44;4979465;28;21276;-83
2023/06/23 09:47:04;;;;;;;0.57;0.40;;;;;;;19.38;100.00;100643.28;4991879;28;20034;-84
2023/06/23 09:49:40;;;;;;;0.88;0.22;;;;;;;19.60;100.00;100637.81;4950591;28;20480;-84
2023/06/23 09:52:08;;;;;;;0.52;0.17;;;;;;;19.74;100.00;100641.34;4941762;28;20092;-83
2023/06/23 09:54:42;;;;;;;0.47;0.28;;;;;;;19.89;100.00;100643.88;4969323;28;20057;-81
2023/06/23 09:57:12;;;;;;;0.63;0.30;;;;;;;19.96;100.00;100636.69;4957986;28;20037;-83
2023/06/23 09:59:39;;;;;;;0.85;0.30;;;;;;;19.94;100.00;100643.28;4959946;28;20030;-81
2023/06/23 10:02:07;;;;;;;1.27;0.20;;;;;;;19.89;100.00;100643.88;4967620;28;20038;-82
2023/06/23 10:04:34;;;;;;;0.55;0.20;;;;;;;19.88;100.00;100650.28;4950880;28;20057;-82
2023/06/23 10:07:20;;;;;;;4.60;2.47;;;;;;;19.82;100.00;100659.13;4953715;28;20041;-82
2023/06/23 10:09:51;;;;;;;0.28;0.28;;;;;;;19.80;100.00;100662.00;4968074;28;20034;-83
2023/06/23 10:12:21;;;;;;;0.13;0.13;;;;;;;19.76;100.00;100662.63;4942324;28;20026;-83
2023/06/23 10:14:49;;;;;;;2.58;0.30;;;;;;;19.70;100.00;100666.94;4952253;28;20030;-82
2023/06/23 10:17:16;;;;;;;0.45;0.13;;;;;;;19.66;100.00;100662.97;4951020;28;20041;-82
2023/06/23 10:20:00;;;;;;;0.90;0.20;;;;;;;19.68;100.00;100661.78;4963975;28;20113;-83
2023/06/23 10:22:27;;;;;;;2.97;0.35;;;;;;;19.73;100.00;100676.41;4959612;28;20069;-84
2023/06/23 10:24:53;;;;;;;0.47;0.30;;;;;;;19.78;100.00;100673.97;4950142;28;20039;-85
2023/06/23 10:27:24;;;;;;;7.22;1.88;;;;;;;19.78;100.00;100666.72;4983773;28;20038;-83
2023/06/23 10:29:56;;;;;;;1.50;0.20;;;;;;;19.75;100.00;100669.81;4950213;28;20039;-84
2023/06/23 10:32:29;;;;;;;0.68;0.30;;;;;;;19.75;100.00;100663.66;4968800;28;20045;-83
2023/06/23 10:35:02;;;;;;;0.10;0.10;;;;;;;19.76;100.00;100667.97;4955342;28;20057;-81
2023/06/23 10:37:30;;;;;;;1.27;0.30;;;;;;;19.77;100.00;100662.41;4945617;28;20609;-83
2023/06/23 10:39:57;;;;;;;0.60;0.30;;;;;;;19.75;100.00;100661.78;4942932;28;20117;-81
2023/06/23 10:42:24;;;;;;;0.70;0.40;;;;;;;19.75;100.00;100656.41;4986619;28;20061;-82
2023/06/23 10:44:50;;;;;;;0.47;0.22;;;;;;;19.74;100.00;100653.94;4944221;28;20032;-83
2023/06/23 10:47:17;;;;;;;1.70;0.40;;;;;;;19.75;100.00;100656.41;4942618;28;20077;-82
2023/06/23 10:49:44;;;;;;;3.25;0.40;;;;;;;19.81;100.00;100652.13;4969625;28;20026;-82
2023/06/23 10:52:12;;;;;;;0.32;0.30;;;;;;;19.85;100.00;100648.00;4956927;28;20350;-82
2023/06/23 10:54:38;;;;;;;3.08;0.40;;;;;;;19.89;100.00;100656.47;4958673;28;20038;-82
2023/06/23 10:57:13;;;;;;;1.95;0.30;;;;;;;19.97;100.00;100648.25;4957144;28;20039;-82
2023/06/23 10:59:57;;;;;;;1.17;0.25;;;;;;;19.99;100.00;100642.69;4954889;28;20481;-83
2023/06/23 11:02:23;;;;;;;3.63;0.73;;;;;;;20.01;100.00;100645.97;4953302;28;20045;-82
2023/06/23 11:04:57;;;;;;;0.55;0.10;;;;;;;20.14;100.00;100645.22;4951593;28;20478;-85
2023/06/23 11:07:24;;;;;;;0.35;0.20;;;;;;;20.20;100.00;100649.75;4959571;28;20042;-82
2023/06/23 11:10:02;;;;;;;2.42;1.10;;;;;;;20.42;100.00;100639.69;4946408;28;20042;-84
2023/06/23 11:12:48;;;;;;;0.35;0.20;;;;;;;20.56;100.00;100653.94;4959056;28;20030;-82
2023/06/23 11:15:16;;;;;;;2.35;0.32;;;;;;;20.69;100.00;100653.13;4939679;28;20042;-83
2023/06/23 11:17:43;;;;;;;0.73;0.20;;;;;;;20.74;100.00;100648.97;4954263;28;20046;-84
2023/06/23 11:20:26;;;;;;;0.50;0.20;;;;;;;20.77;100.00;100648.56;4942941;28;20599;-83
2023/06/23 11:23:09;;;;;;;2.75;0.30;;;;;;;20.76;100.00;100649.59;4942085;28;20047;-83
2023/06/23 11:25:50;;;;;;;0.60;0.38;;;;;;;20.77;100.00;100652.06;4929144;28;20037;-85
2023/06/23 11:28:39;;;;;;;1.23;0.73;;;;;;;20.75;100.00;100648.75;4925768;28;20511;-86